^^
Saratoga-Weather Station Historical Data
Daily Summary for December 26, 2020 Units:  English    Metric   Both
Daily Weekly Monthly Yearly Custom
  High: Low: Average:
Temperature: 35.2 °F 31.3 °F 33.4 °F
Dew Point: 33.3 °F 29.3 °F 31.6 °F
Humidity: 95% 90% 93%
Wind Speed: 6mph 0mph 1.1mph
Wind Gust: 9mph - -
Wind- - West
Pressure: 30.3 in 30.3 in -
Precipitation: 0 in    
Historical Graphs
 
 
Tabular Data for December 26, 2020
Time Temperature Dew Point Pressure Wind Wind Speed Wind Gust Humidity Rainfall Rate (Hourly) solar
00:00 34.3 °F 31.6 °F 30.3 in WSW 0.9 mph 3 mph 90% 0 in 0 W/m2
00:05 34.3 °F 31.6 °F 30.3 in West 0.9 mph 2 mph 90% 0 in 0 W/m2
00:10 34.3 °F 31.6 °F 30.3 in Calm   3 mph 90% 0 in 0 W/m2
00:15 34.2 °F 31.5 °F 30.3 in Calm   2 mph 90% 0 in 0 W/m2
00:20 34 °F 31.3 °F 30.3 in Calm   2 mph 90% 0 in 0 W/m2
00:25 33.6 °F 31.3 °F 30.3 in Calm   3 mph 91% 0 in 0 W/m2
00:30 33.6 °F 31.3 °F 30.3 in West 2 mph 3 mph 91% 0 in 0 W/m2
00:35 34 °F 31.8 °F 30.3 in West 2 mph 3 mph 92% 0 in 0 W/m2
00:40 34 °F 31.6 °F 30.3 in WSW 0.9 mph 2 mph 91% 0 in 0 W/m2
00:45 34 °F 31.6 °F 30.3 in West 0.9 mph 3 mph 91% 0 in 0 W/m2
00:50 34 °F 31.8 °F 30.3 in WSW 2 mph 3 mph 92% 0 in 0 W/m2
00:55 34 °F 31.8 °F 30.3 in Calm   3 mph 92% 0 in 0 W/m2
01:00 34 °F 31.6 °F 30.3 in Calm     91% 0 in 0 W/m2
01:05 33.6 °F 31.3 °F 30.3 in Calm   3 mph 91% 0 in 0 W/m2
01:10 33.3 °F 30.9 °F 30.3 in Calm     91% 0 in 0 W/m2
01:15 33.1 °F 30.7 °F 30.3 in Calm     91% 0 in 0 W/m2
01:20 32.7 °F 30.4 °F 30.3 in Calm     91% 0 in 0 W/m2
01:25 32.4 °F 30 °F 30.3 in West 0.9 mph 2 mph 91% 0 in 0 W/m2
01:30 32 °F 29.7 °F 30.3 in Calm     91% 0 in 0 W/m2
01:35 31.6 °F 29.3 °F 30.3 in Calm   2 mph 91% 0 in 0 W/m2
01:40 31.6 °F 29.7 °F 30.3 in Calm   1 mph 92% 0 in 0 W/m2
01:46 31.5 °F 29.5 °F 30.3 in Calm     92% 0 in 0 W/m2
01:51 31.5 °F 29.7 °F 30.3 in Calm   1 mph 93% 0 in 0 W/m2
01:56 31.3 °F 29.5 °F 30.3 in West 0.9 mph 1 mph 93% 0 in 0 W/m2
02:01 31.3 °F 29.5 °F 30.3 in WNW 0.9 mph 2 mph 93% 0 in 0 W/m2
02:06 31.6 °F 30.2 °F 30.3 in WNW 0.9 mph 2 mph 94% 0 in 0 W/m2
02:11 31.8 °F 30.4 °F 30.3 in Calm   1 mph 94% 0 in 0 W/m2
02:16 31.8 °F 30.4 °F 30.3 in Calm     94% 0 in 0 W/m2
02:21 31.8 °F 30.4 °F 30.3 in Calm   1 mph 94% 0 in 0 W/m2
02:26 31.6 °F 30.2 °F 30.3 in Calm   1 mph 94% 0 in 0 W/m2
02:31 31.8 °F 30.4 °F 30.3 in Calm   2 mph 94% 0 in 0 W/m2
02:36 32.2 °F 30.6 °F 30.3 in WSW 4 mph 7 mph 94% 0 in 0 W/m2
02:41 32.9 °F 31.6 °F 30.3 in West 2.9 mph 8 mph 95% 0 in 0 W/m2
02:46 33.8 °F 32.5 °F 30.3 in West 2 mph 9 mph 95% 0 in 0 W/m2
02:51 34.3 °F 32.7 °F 30.3 in WSW 6 mph 7 mph 94% 0 in 0 W/m2
02:56 34.7 °F 32.9 °F 30.3 in West 2.9 mph 9 mph 93% 0 in 0 W/m2
03:01 35.1 °F 32.9 °F 30.3 in West 2.9 mph 6 mph 92% 0 in 0 W/m2
03:06 35.1 °F 32.7 °F 30.3 in West 4 mph 6 mph 91% 0 in 0 W/m2
03:11 35.2 °F 32.9 °F 30.3 in WNW 2.9 mph 7 mph 91% 0 in 0 W/m2
03:16 35.2 °F 32.5 °F 30.3 in WNW 4 mph 7 mph 90% 0 in 0 W/m2
03:21 35.1 °F 32.4 °F 30.3 in WSW 2.9 mph 7 mph 90% 0 in 0 W/m2
03:26 34.7 °F 32 °F 30.3 in WNW 2.9 mph 5 mph 90% 0 in 0 W/m2
03:31 34.5 °F 32.2 °F 30.3 in Calm   3 mph 91% 0 in 0 W/m2
03:36 34.3 °F 32 °F 30.3 in WNW 2 mph 4 mph 91% 0 in 0 W/m2
03:41 34.3 °F 32 °F 30.3 in WSW 6 mph 7 mph 91% 0 in 0 W/m2
03:46 34.2 °F 31.8 °F 30.3 in WNW 2 mph 6 mph 91% 0 in 0 W/m2
03:51 34 °F 31.6 °F 30.3 in Calm     91% 0 in 0 W/m2
03:56 34 °F 31.8 °F 30.3 in NNW 2 mph 3 mph 92% 0 in 0 W/m2
04:01 34 °F 31.8 °F 30.3 in NW 0.9 mph 2 mph 92% 0 in 0 W/m2
04:06 33.8 °F 31.6 °F 30.3 in WNW 2.9 mph 8 mph 92% 0 in 0 W/m2
04:11 34 °F 31.8 °F 30.3 in WNW 2 mph 3 mph 92% 0 in 0 W/m2
04:16 34 °F 31.8 °F 30.3 in WNW 0.9 mph 8 mph 92% 0 in 0 W/m2
04:21 33.8 °F 31.6 °F 30.3 in NW 2 mph 3 mph 92% 0 in 0 W/m2
04:26 33.6 °F 31.5 °F 30.3 in NW 0.9 mph 3 mph 92% 0 in 0 W/m2
04:31 33.4 °F 31.3 °F 30.3 in West 2 mph 4 mph 92% 0 in 0 W/m2
04:36 33.3 °F 31.1 °F 30.3 in West 2.9 mph 4 mph 92% 0 in 0 W/m2
04:41 33.1 °F 31.1 °F 30.3 in West 4 mph 4 mph 92% 0 in 0 W/m2
04:46 33.1 °F 31.3 °F 30.3 in NW 2 mph 4 mph 93% 0 in 0 W/m2
04:51 32.9 °F 31.1 °F 30.3 in West 2 mph 3 mph 93% 0 in 0 W/m2
04:56 32.9 °F 31.1 °F 30.3 in Calm   1 mph 93% 0 in 0 W/m2
05:01 32.9 °F 31.1 °F 30.3 in Calm   1 mph 93% 0 in 0 W/m2
05:06 32.7 °F 30.9 °F 30.3 in Calm     93% 0 in 0 W/m2
05:11 32.7 °F 30.9 °F 30.3 in Calm     93% 0 in 0 W/m2
05:16 32.7 °F 30.9 °F 30.3 in Calm   1 mph 93% 0 in 0 W/m2
05:21 32.7 °F 30.9 °F 30.3 in Calm   1 mph 93% 0 in 0 W/m2
05:26 32.9 °F 31.3 °F 30.3 in Calm   2 mph 94% 0 in 0 W/m2
05:31 32.9 °F 31.3 °F 30.3 in WNW 0.9 mph 2 mph 94% 0 in 0 W/m2
05:36 33.1 °F 31.5 °F 30.3 in Calm   1 mph 94% 0 in 0 W/m2
05:41 33.1 °F 31.5 °F 30.3 in WNW 0.9 mph 2 mph 94% 0 in 0 W/m2
05:46 33.1 °F 31.5 °F 30.3 in WNW 0.9 mph 2 mph 94% 0 in 0 W/m2
05:51 33.1 °F 31.5 °F 30.3 in Calm     94% 0 in 0 W/m2
05:56 33.1 °F 31.5 °F 30.3 in Calm   2 mph 94% 0 in 0 W/m2
06:01 32.9 °F 31.1 °F 30.3 in North 0.9 mph 2 mph 93% 0 in 0 W/m2
06:06 32.7 °F 31.1 °F 30.3 in Calm   1 mph 94% 0 in 0 W/m2
06:11 32.7 °F 31.1 °F 30.3 in Calm     94% 0 in 0 W/m2
06:16 32.7 °F 31.1 °F 30.3 in Calm   1 mph 94% 0 in 0 W/m2
06:22 32.5 °F 30.9 °F 30.3 in Calm   1 mph 94% 0 in 0 W/m2
06:27 32.5 °F 30.9 °F 30.3 in NW 0.9 mph 1 mph 94% 0 in 0 W/m2
06:32 32.7 °F 31.1 °F 30.3 in NW 0.9 mph 1 mph 94% 0 in 0 W/m2
06:37 32.7 °F 31.1 °F 30.3 in Calm   2 mph 94% 0 in 0 W/m2
06:42 33.1 °F 31.5 °F 30.3 in East 0.9 mph 2 mph 94% 0 in 0 W/m2
06:47 33.1 °F 31.8 °F 30.3 in Calm   1 mph 95% 0 in 0 W/m2
06:52 33.1 °F 31.8 °F 30.3 in ESE 2 mph 3 mph 95% 0 in 0 W/m2
06:57 33.3 °F 32 °F 30.3 in Calm   1 mph 95% 0 in 0 W/m2
07:02 33.3 °F 32 °F 30.3 in NNW 2 mph 3 mph 95% 0 in 0 W/m2
07:07 33.3 °F 32 °F 30.3 in Calm   1 mph 95% 0 in 0 W/m2
07:12 33.3 °F 32 °F 30.3 in East 2 mph 3 mph 95% 0 in 0 W/m2
07:17 33.3 °F 32 °F 30.3 in Calm   1 mph 95% 0 in 0 W/m2
07:22 33.3 °F 32 °F 30.3 in Calm   3 mph 95% 0 in 0 W/m2
07:27 33.3 °F 32 °F 30.3 in Calm   2 mph 95% 0 in 0 W/m2
07:32 33.4 °F 32.2 °F 30.3 in WSW 2 mph 3 mph 95% 0 in 0 W/m2
07:37 33.4 °F 32.2 °F 30.3 in SW 0.9 mph 2 mph 95% 0 in 0 W/m2
07:42 33.4 °F 32.2 °F 30.3 in Calm   4 mph 95% 0 in 0 W/m2
07:47 33.4 °F 32.2 °F 30.3 in SE 0.9 mph 3 mph 95% 0 in 0 W/m2
07:52 33.4 °F 32.2 °F 30.3 in ESE 0.9 mph 2 mph 95% 0 in 0 W/m2
07:57 33.4 °F 32.2 °F 30.3 in ENE 2.9 mph 3 mph 95% 0 in 0 W/m2
08:02 33.4 °F 32.2 °F 30.3 in Calm   1 mph 95% 0 in 0 W/m2
08:07 33.4 °F 32.2 °F 30.3 in Calm   2 mph 95% 0 in 0 W/m2
08:12 33.4 °F 32.2 °F 30.3 in Calm     95% 0 in 0 W/m2
08:17 33.4 °F 32.2 °F 30.3 in Calm     95% 0 in 0 W/m2
08:22 33.4 °F 32.2 °F 30.3 in Calm     95% 0 in 0 W/m2
08:27 33.4 °F 32.2 °F 30.3 in West 0.9 mph 2 mph 95% 0 in 0 W/m2
08:32 33.4 °F 32.2 °F 30.3 in SW 0.9 mph 1 mph 95% 0 in 0 W/m2
08:37 33.4 °F 32.2 °F 30.3 in Calm   2 mph 95% 0 in 0 W/m2
08:42 33.4 °F 32.2 °F 30.3 in West 2 mph 3 mph 95% 0 in 0 W/m2
08:47 33.4 °F 32.2 °F 30.3 in Calm     95% 0 in 5 W/m2
08:52 33.6 °F 32.4 °F 30.3 in ESE 2 mph 2 mph 95% 0 in 7 W/m2
08:57 33.6 °F 32.4 °F 30.3 in Calm   1 mph 95% 0 in 7 W/m2
09:02 33.6 °F 32.4 °F 30.3 in Calm   1 mph 95% 0 in 9 W/m2
09:07 33.6 °F 32.4 °F 30.3 in Calm     95% 0 in 11 W/m2
09:12 33.8 °F 32.5 °F 30.3 in ENE 0.9 mph 1 mph 95% 0 in 11 W/m2
09:17 33.8 °F 32.5 °F 30.3 in Calm   1 mph 95% 0 in 12 W/m2
09:22 34 °F 32.7 °F 30.3 in WNW 2.9 mph 3 mph 95% 0 in 14 W/m2
09:27 34 °F 32.7 °F 30.3 in WNW 0.9 mph 3 mph 95% 0 in 14 W/m2
09:32 34.2 °F 32.9 °F 30.3 in NW 2 mph 2 mph 95% 0 in 18 W/m2
09:37 34.2 °F 32.9 °F 30.3 in WNW 2 mph 4 mph 95% 0 in 16 W/m2
09:42 34.2 °F 32.9 °F 30.3 in West 0.9 mph 2 mph 95% 0 in 16 W/m2
09:47 34.3 °F 33.1 °F 30.3 in Calm   2 mph 95% 0 in 18 W/m2
09:52 34.3 °F 33.1 °F 30.3 in WNW 0.9 mph 2 mph 95% 0 in 12 W/m2
09:57 34.5 °F 33.3 °F 30.3 in WNW 2 mph 3 mph 95% 0 in 16 W/m2
10:02 34.5 °F 33.3 °F 30.3 in WNW 2.9 mph 4 mph 95% 0 in 16 W/m2
10:07 34.5 °F 33.3 °F 30.3 in West 2 mph 5 mph 95% 0 in 18 W/m2
10:12 34.5 °F 33.3 °F 30.3 in West 2 mph 3 mph 95% 0 in 19 W/m2
10:17 34.5 °F 33.3 °F 30.3 in West 2.9 mph 5 mph 95% 0 in 23 W/m2
10:22 34.5 °F 33.3 °F 30.3 in WNW 2.9 mph 6 mph 95% 0 in 30 W/m2
10:27 34.5 °F 33.3 °F 30.3 in WNW 2.9 mph 6 mph 95% 0 in 26 W/m2
Juneau County Weather
Compliments of Weather Underground - 2 mb